createdAt,value
2024-02-14T00:00:28.462Z,34.06
2024-02-14T00:01:00.006Z,33.98
2024-02-14T00:01:31.628Z,33.85
2024-02-14T00:02:03.169Z,34.11
2024-02-14T00:02:34.739Z,33.86
2024-02-14T00:03:06.331Z,33.87
2024-02-14T00:03:37.973Z,33.92
2024-02-14T00:04:09.553Z,33.92
2024-02-14T00:04:41.065Z,34.01
2024-02-14T00:05:12.653Z,33.97
2024-02-14T00:05:44.158Z,33.89
2024-02-14T00:06:15.730Z,34.10
2024-02-14T00:06:47.317Z,33.90
2024-02-14T00:07:18.879Z,34.04
2024-02-14T00:07:50.465Z,33.96
2024-02-14T00:08:23.772Z,34.09
2024-02-14T00:08:55.316Z,33.88
2024-02-14T00:09:26.807Z,34.03
2024-02-14T00:09:58.255Z,34.01
2024-02-14T00:10:29.866Z,34.02
2024-02-14T00:11:01.370Z,33.83
2024-02-14T00:11:32.865Z,33.98
2024-02-14T00:12:04.553Z,33.99
2024-02-14T00:12:36.013Z,34.00
2024-02-14T00:13:07.459Z,34.00
2024-02-14T00:13:38.970Z,34.08
2024-02-14T00:14:10.462Z,34.04
2024-02-14T00:14:42.046Z,33.96
2024-02-14T00:15:13.632Z,34.01
2024-02-14T00:15:45.120Z,34.00
2024-02-14T00:16:16.593Z,34.28
2024-02-14T00:16:48.129Z,33.94
2024-02-14T00:17:19.647Z,33.89
2024-02-14T00:17:51.204Z,34.02
2024-02-14T00:18:22.848Z,33.98
2024-02-14T00:18:54.697Z,33.97
2024-02-14T00:19:26.304Z,34.08
2024-02-14T00:19:58.082Z,33.89
2024-02-14T00:20:29.636Z,34.05
2024-02-14T00:21:01.264Z,33.93
2024-02-14T00:21:34.444Z,33.95
2024-02-14T00:22:06.036Z,33.87
2024-02-14T00:22:37.523Z,34.15
2024-02-14T00:23:09.009Z,33.96
2024-02-14T00:23:40.587Z,33.96
2024-02-14T00:24:12.083Z,34.02
2024-02-14T00:24:43.607Z,34.10
2024-02-14T00:25:20.630Z,34.12
2024-02-14T00:25:52.604Z,33.95
2024-02-14T00:26:24.161Z,34.02
2024-02-14T00:26:55.754Z,33.99
2024-02-14T00:27:27.214Z,34.00
2024-02-14T00:27:58.750Z,34.06
2024-02-14T00:28:30.305Z,33.99
2024-02-14T00:29:01.950Z,34.02
2024-02-14T00:29:33.459Z,33.98
2024-02-14T00:30:05.100Z,33.97
2024-02-14T00:30:36.680Z,34.01
2024-02-14T00:31:08.185Z,34.04
2024-02-14T00:31:42.399Z,34.08
2024-02-14T00:32:14.001Z,33.97
2024-02-14T00:32:45.676Z,34.09
2024-02-14T00:33:17.381Z,33.92
2024-02-14T00:33:49.137Z,34.12
2024-02-14T00:34:20.838Z,34.06
2024-02-14T00:34:52.680Z,34.15
2024-02-14T00:35:24.462Z,34.09
2024-02-14T00:35:56.106Z,34.21
2024-02-14T00:36:27.598Z,34.09
2024-02-14T00:36:59.198Z,34.24
2024-02-14T00:37:30.631Z,34.07
2024-02-14T00:38:02.173Z,34.03
2024-02-14T00:38:33.741Z,34.07
2024-02-14T00:39:05.343Z,33.94
2024-02-14T00:39:36.911Z,34.20
2024-02-14T00:40:08.616Z,34.07
2024-02-14T00:40:40.141Z,33.96
2024-02-14T00:41:11.734Z,34.04
2024-02-14T00:41:43.279Z,34.07
2024-02-14T00:42:14.800Z,34.16
2024-02-14T00:42:46.360Z,34.17
2024-02-14T00:43:17.867Z,33.88
2024-02-14T00:43:49.313Z,34.16
2024-02-14T00:44:20.803Z,34.09
2024-02-14T00:44:52.398Z,34.14
2024-02-14T00:45:23.895Z,34.08
2024-02-14T00:45:55.370Z,34.15
2024-02-14T00:46:26.833Z,34.07
2024-02-14T00:46:58.375Z,34.18
2024-02-14T00:47:30.024Z,34.11
2024-02-14T00:48:01.774Z,34.17
2024-02-14T00:48:33.487Z,34.08
2024-02-14T00:49:05.133Z,33.96
2024-02-14T00:49:36.907Z,34.22
2024-02-14T00:50:08.404Z,34.06
2024-02-14T00:50:39.953Z,34.05
2024-02-14T00:51:11.487Z,34.07
2024-02-14T00:51:42.996Z,33.95
2024-02-14T00:52:14.498Z,34.15
2024-02-14T00:52:45.936Z,34.20
2024-02-14T00:53:17.454Z,34.16
2024-02-14T00:53:51.618Z,34.11
2024-02-14T00:54:23.160Z,33.91
2024-02-14T00:54:54.721Z,33.99
2024-02-14T00:55:26.163Z,33.97
2024-02-14T00:55:57.643Z,34.08
2024-02-14T00:56:31.750Z,34.19
2024-02-14T00:57:03.400Z,34.08
2024-02-14T00:57:35.056Z,34.01
2024-02-14T00:58:06.577Z,34.19
2024-02-14T00:58:38.060Z,34.02
2024-02-14T00:59:09.573Z,34.11
2024-02-14T00:59:41.121Z,34.09
2024-02-14T01:00:12.654Z,34.25
2024-02-14T01:00:44.234Z,34.11
2024-02-14T01:01:15.784Z,33.97
2024-02-14T01:01:47.266Z,34.21
2024-02-14T01:02:18.721Z,34.08
2024-02-14T01:02:50.261Z,34.19
2024-02-14T01:03:21.709Z,34.06
2024-02-14T01:03:53.326Z,34.13
2024-02-14T01:04:24.850Z,34.09
2024-02-14T01:04:56.374Z,34.12
2024-02-14T01:05:28.014Z,34.02
2024-02-14T01:05:59.686Z,34.03
2024-02-14T01:06:31.282Z,33.94
2024-02-14T01:07:02.775Z,34.20
2024-02-14T01:07:34.284Z,34.10
2024-02-14T01:08:05.798Z,34.23
2024-02-14T01:08:37.352Z,34.04
2024-02-14T01:09:08.917Z,33.94
2024-02-14T01:09:40.383Z,34.18
2024-02-14T01:10:11.820Z,34.14
2024-02-14T01:10:43.283Z,33.97
2024-02-14T01:11:14.749Z,34.09
2024-02-14T01:11:46.281Z,34.12
2024-02-14T01:12:17.826Z,34.12
2024-02-14T01:12:49.320Z,34.27
2024-02-14T01:13:20.851Z,34.34
2024-02-14T01:13:55.052Z,34.20
2024-02-14T01:14:26.522Z,34.08
2024-02-14T01:14:58.119Z,34.34
2024-02-14T01:15:29.603Z,34.16
2024-02-14T01:16:01.196Z,34.35
2024-02-14T01:16:32.707Z,34.07
2024-02-14T01:17:06.858Z,34.27
2024-02-14T01:17:38.423Z,34.28
2024-02-14T01:18:10.133Z,34.16
2024-02-14T01:18:41.817Z,34.46
2024-02-14T01:19:13.622Z,34.23
2024-02-14T01:19:45.282Z,34.27
2024-02-14T01:20:16.850Z,34.29
2024-02-14T01:20:48.393Z,34.28
2024-02-14T01:21:19.898Z,34.56
2024-02-14T01:21:51.366Z,34.35
2024-02-14T01:22:22.901Z,34.45
2024-02-14T01:22:54.409Z,34.40
2024-02-14T01:23:25.941Z,34.23
2024-02-14T01:23:57.454Z,34.40
2024-02-14T01:24:28.917Z,34.23
2024-02-14T01:25:00.428Z,34.30
2024-02-14T01:25:31.933Z,34.44
2024-02-14T01:26:03.493Z,34.30
2024-02-14T01:26:35.047Z,34.32
2024-02-14T01:27:06.762Z,34.48
2024-02-14T01:27:38.306Z,34.25
2024-02-14T01:28:09.804Z,34.38
2024-02-14T01:28:41.223Z,34.41
2024-02-14T01:29:12.695Z,34.37
2024-02-14T01:29:44.485Z,34.25
2024-02-14T01:30:16.070Z,34.29
2024-02-14T01:30:50.790Z,34.30
2024-02-14T01:31:22.308Z,34.35
2024-02-14T01:31:53.808Z,34.49
2024-02-14T01:32:27.815Z,34.22
2024-02-14T01:32:59.488Z,34.44
2024-02-14T01:33:31.141Z,34.51
2024-02-14T01:34:02.827Z,34.31
2024-02-14T01:34:34.636Z,34.41
2024-02-14T01:35:06.164Z,34.41
2024-02-14T01:35:37.648Z,34.43
2024-02-14T01:36:09.277Z,34.54
2024-02-14T01:36:40.791Z,34.38
2024-02-14T01:37:17.404Z,34.47
2024-02-14T01:37:51.929Z,34.29
2024-02-14T01:38:23.423Z,34.40
2024-02-14T01:38:57.927Z,34.50
2024-02-14T01:39:29.385Z,34.30
2024-02-14T01:40:00.813Z,34.49
2024-02-14T01:40:32.321Z,34.22
2024-02-14T01:41:03.837Z,34.25
2024-02-14T01:41:35.441Z,34.35
2024-02-14T01:42:07.002Z,34.21
2024-02-14T01:42:38.517Z,34.33
2024-02-14T01:43:09.961Z,34.33
2024-02-14T01:43:41.467Z,34.36
2024-02-14T01:44:12.936Z,34.40
2024-02-14T01:44:44.498Z,34.33
2024-02-14T01:45:15.978Z,34.38
2024-02-14T01:45:47.478Z,34.34
2024-02-14T01:46:21.428Z,34.28
2024-02-14T01:46:52.952Z,34.40
2024-02-14T01:47:25.597Z,34.39
2024-02-14T01:47:57.122Z,34.38
2024-02-14T01:48:31.762Z,34.48
2024-02-14T01:49:06.220Z,34.34
2024-02-14T01:49:37.889Z,34.30
2024-02-14T01:50:09.397Z,34.41
2024-02-14T01:50:43.609Z,34.44
2024-02-14T01:51:15.050Z,34.40
2024-02-14T01:51:46.578Z,34.35
2024-02-14T01:52:18.039Z,34.38
2024-02-14T01:52:50.432Z,34.58
2024-02-14T01:53:21.843Z,34.30
2024-02-14T01:53:53.333Z,34.31
2024-02-14T01:54:24.910Z,34.29
2024-02-14T01:54:59.432Z,34.24
2024-02-14T01:55:30.974Z,34.36
2024-02-14T01:56:02.416Z,34.36
2024-02-14T01:56:33.924Z,34.34
2024-02-14T01:57:05.398Z,34.29
2024-02-14T01:57:36.866Z,34.23
2024-02-14T01:58:10.183Z,34.21
2024-02-14T01:58:41.618Z,34.34
2024-02-14T01:59:13.095Z,34.64
2024-02-14T01:59:44.667Z,34.47
2024-02-14T02:00:16.209Z,34.39
2024-02-14T02:00:48.975Z,34.35
2024-02-14T02:01:20.477Z,34.40
2024-02-14T02:01:54.686Z,34.39
2024-02-14T02:02:26.262Z,34.40
2024-02-14T02:02:57.781Z,34.56
2024-02-14T02:03:29.269Z,34.41
2024-02-14T02:04:00.817Z,34.43
2024-02-14T02:04:32.434Z,34.40
2024-02-14T02:05:03.958Z,34.33
2024-02-14T02:05:35.573Z,34.35
2024-02-14T02:06:07.663Z,34.32
2024-02-14T02:06:39.293Z,34.31
2024-02-14T02:07:10.779Z,34.57
2024-02-14T02:07:42.253Z,34.28
2024-02-14T02:08:13.692Z,34.55
2024-02-14T02:08:45.316Z,34.44
2024-02-14T02:09:16.948Z,34.51
2024-02-14T02:09:48.488Z,34.53
2024-02-14T02:10:20.085Z,34.56
2024-02-14T02:10:54.065Z,34.42
2024-02-14T02:11:25.471Z,34.36
2024-02-14T02:11:58.592Z,34.41
2024-02-14T02:12:30.055Z,34.57
2024-02-14T02:13:01.553Z,34.57
2024-02-14T02:13:33.082Z,34.41
2024-02-14T02:14:04.522Z,34.50
2024-02-14T02:14:36.073Z,34.62
2024-02-14T02:15:07.661Z,34.35
2024-02-14T02:15:39.198Z,34.52
2024-02-14T02:16:10.725Z,34.61
2024-02-14T02:16:42.238Z,34.27
2024-02-14T02:17:13.690Z,34.37
2024-02-14T02:17:45.291Z,34.38
2024-02-14T02:18:17.035Z,34.42
2024-02-14T02:18:48.799Z,34.60
2024-02-14T02:19:20.410Z,34.38
2024-02-14T02:19:51.976Z,34.43
2024-02-14T02:20:26.273Z,34.31
2024-02-14T02:20:57.852Z,34.39
2024-02-14T02:21:29.354Z,34.38
2024-02-14T02:22:00.775Z,34.39
2024-02-14T02:22:32.264Z,34.55
2024-02-14T02:23:03.760Z,34.31
2024-02-14T02:23:35.226Z,34.56
2024-02-14T02:24:09.524Z,34.29
2024-02-14T02:24:43.652Z,34.49
2024-02-14T02:25:15.205Z,34.39
2024-02-14T02:25:46.667Z,34.46
2024-02-14T02:26:18.154Z,34.37
2024-02-14T02:26:49.702Z,34.61
2024-02-14T02:27:21.316Z,34.65
2024-02-14T02:27:52.835Z,34.60
2024-02-14T02:28:24.336Z,34.63
2024-02-14T02:28:55.849Z,34.40
2024-02-14T02:29:30.582Z,34.51
2024-02-14T02:30:02.184Z,34.47
2024-02-14T02:30:33.630Z,34.58
2024-02-14T02:31:07.396Z,34.53
2024-02-14T02:31:38.895Z,34.49
2024-02-14T02:32:10.432Z,34.55
2024-02-14T02:32:41.995Z,34.59
2024-02-14T02:33:13.596Z,34.63
2024-02-14T02:33:45.385Z,34.68
2024-02-14T02:34:17.054Z,34.66
2024-02-14T02:34:48.605Z,34.56
2024-02-14T02:35:20.083Z,34.70
2024-02-14T02:35:51.607Z,34.44
2024-02-14T02:36:23.210Z,34.57
2024-02-14T02:36:54.723Z,34.70
2024-02-14T02:37:26.194Z,34.61
2024-02-14T02:37:57.718Z,34.62
2024-02-14T02:38:29.180Z,34.57
2024-02-14T02:39:00.718Z,34.65
2024-02-14T02:39:32.147Z,34.69
2024-02-14T02:40:05.914Z,34.60
2024-02-14T02:40:37.384Z,34.72
2024-02-14T02:41:09.772Z,34.73
2024-02-14T02:41:41.293Z,34.64
2024-02-14T02:42:12.882Z,34.66
2024-02-14T02:42:44.379Z,34.44
2024-02-14T02:43:17.401Z,34.74
2024-02-14T02:43:48.889Z,34.60
2024-02-14T02:44:20.391Z,34.61
2024-02-14T02:44:51.971Z,34.50
2024-02-14T02:45:23.497Z,34.68
2024-02-14T02:45:54.998Z,34.72
2024-02-14T02:46:28.136Z,34.75
2024-02-14T02:46:59.595Z,34.71
2024-02-14T02:47:31.138Z,34.69
2024-02-14T02:48:02.866Z,34.83
2024-02-14T02:48:34.553Z,34.57
2024-02-14T02:49:06.271Z,34.72
2024-02-14T02:49:37.913Z,34.63
2024-02-14T02:50:09.381Z,34.83
2024-02-14T02:50:40.874Z,34.51
2024-02-14T02:51:12.428Z,34.68
2024-02-14T02:51:43.944Z,34.70
2024-02-14T02:52:15.452Z,34.59
2024-02-14T02:52:46.953Z,34.76
2024-02-14T02:53:18.409Z,34.72
2024-02-14T02:53:49.899Z,34.59
2024-02-14T02:54:21.364Z,34.63
2024-02-14T02:54:56.005Z,34.75
2024-02-14T02:55:27.729Z,34.60
2024-02-14T02:55:59.271Z,34.66
2024-02-14T02:56:30.831Z,34.73
2024-02-14T02:57:02.491Z,34.58
2024-02-14T02:57:34.001Z,34.67
2024-02-14T02:58:05.457Z,34.76
2024-02-14T02:58:36.935Z,34.71
2024-02-14T02:59:08.465Z,34.80
2024-02-14T02:59:39.951Z,34.72
2024-02-14T03:00:11.476Z,34.79
2024-02-14T03:00:42.949Z,34.77
2024-02-14T03:01:14.441Z,34.51
2024-02-14T03:01:50.467Z,34.59
2024-02-14T03:02:21.934Z,34.69
2024-02-14T03:02:53.446Z,34.84
2024-02-14T03:03:24.944Z,34.63
2024-02-14T03:03:56.411Z,34.92
2024-02-14T03:04:41.318Z,34.77
2024-02-14T03:05:20.165Z,34.78
2024-02-14T03:05:51.988Z,34.77
2024-02-14T03:06:23.551Z,34.78
2024-02-14T03:06:55.125Z,34.75
2024-02-14T03:07:26.630Z,34.75
2024-02-14T03:07:58.067Z,34.77
2024-02-14T03:08:29.580Z,34.80
2024-02-14T03:09:01.178Z,34.70
2024-02-14T03:09:32.716Z,34.77
2024-02-14T03:10:04.251Z,34.67
2024-02-14T03:10:35.850Z,34.72
2024-02-14T03:11:07.437Z,34.82
2024-02-14T03:11:38.952Z,34.76
2024-02-14T03:12:10.450Z,34.80
2024-02-14T03:12:41.975Z,34.66
2024-02-14T03:13:13.441Z,34.91
2024-02-14T03:13:44.941Z,34.79
2024-02-14T03:14:16.437Z,34.78
2024-02-14T03:14:48.103Z,34.78
2024-02-14T03:15:19.763Z,34.77
2024-02-14T03:15:51.209Z,34.75
2024-02-14T03:16:22.684Z,34.71
2024-02-14T03:16:54.123Z,34.83
2024-02-14T03:17:25.657Z,34.82
2024-02-14T03:17:57.359Z,34.98
2024-02-14T03:18:29.082Z,34.79
2024-02-14T03:19:00.783Z,34.91
2024-02-14T03:19:32.350Z,34.93
2024-02-14T03:20:07.140Z,34.83
2024-02-14T03:20:39.134Z,34.93
2024-02-14T03:21:10.679Z,34.79
2024-02-14T03:21:45.186Z,34.87
2024-02-14T03:22:16.651Z,34.80
2024-02-14T03:22:49.881Z,34.73
2024-02-14T03:23:21.480Z,34.70
2024-02-14T03:23:54.820Z,34.87
2024-02-14T03:24:26.242Z,34.81
2024-02-14T03:24:57.698Z,34.77
2024-02-14T03:25:32.034Z,34.95
2024-02-14T03:26:03.544Z,34.89
2024-02-14T03:26:37.639Z,34.95
2024-02-14T03:27:09.140Z,34.94
2024-02-14T03:27:40.721Z,34.92
2024-02-14T03:28:12.264Z,34.81
2024-02-14T03:28:43.713Z,34.86
2024-02-14T03:29:15.201Z,34.92
2024-02-14T03:29:46.727Z,34.94
2024-02-14T03:30:19.183Z,34.74
2024-02-14T03:30:51.149Z,34.96
2024-02-14T03:31:22.651Z,34.82
2024-02-14T03:31:54.192Z,34.89
2024-02-14T03:32:25.652Z,34.74
2024-02-14T03:32:57.347Z,34.92
2024-02-14T03:33:29.236Z,34.83
2024-02-14T03:34:00.888Z,34.83
2024-02-14T03:34:32.748Z,34.86
2024-02-14T03:35:04.327Z,34.95
2024-02-14T03:35:35.892Z,34.82
2024-02-14T03:36:07.528Z,34.79
2024-02-14T03:36:40.184Z,35.00
2024-02-14T03:37:11.655Z,34.92
2024-02-14T03:37:43.175Z,35.06
2024-02-14T03:38:14.667Z,35.02
2024-02-14T03:38:46.196Z,35.11
2024-02-14T03:39:19.234Z,35.04
2024-02-14T03:39:50.754Z,34.97
2024-02-14T03:40:22.235Z,35.05
2024-02-14T03:40:53.676Z,35.08
2024-02-14T03:41:25.238Z,35.11
2024-02-14T03:41:56.931Z,34.93
2024-02-14T03:42:28.400Z,35.07
2024-02-14T03:42:59.864Z,34.86
2024-02-14T03:43:32.498Z,35.13
2024-02-14T03:44:04.055Z,35.03
2024-02-14T03:44:35.513Z,35.07
2024-02-14T03:45:07.110Z,35.03
2024-02-14T03:45:38.604Z,35.12
2024-02-14T03:46:10.079Z,35.01
2024-02-14T03:46:41.546Z,35.02
2024-02-14T03:47:13.074Z,35.05
2024-02-14T03:47:44.613Z,35.05
2024-02-14T03:48:16.311Z,35.08
2024-02-14T03:48:51.059Z,34.91
2024-02-14T03:49:22.690Z,35.01
2024-02-14T03:49:54.210Z,35.08
2024-02-14T03:50:25.671Z,35.00
2024-02-14T03:50:57.131Z,35.10
2024-02-14T03:51:28.655Z,35.05
2024-02-14T03:52:03.087Z,35.04
2024-02-14T03:52:34.541Z,35.08
2024-02-14T03:53:06.048Z,35.12
2024-02-14T03:53:37.542Z,35.02
2024-02-14T03:54:09.104Z,35.05
2024-02-14T03:54:40.587Z,35.05
2024-02-14T03:55:12.045Z,35.03
2024-02-14T03:55:43.476Z,35.13
2024-02-14T03:56:15.008Z,35.14
2024-02-14T03:56:46.533Z,35.03
2024-02-14T03:57:18.069Z,35.05
2024-02-14T03:57:49.659Z,35.03
2024-02-14T03:58:23.615Z,35.13
2024-02-14T03:58:55.106Z,35.09
2024-02-14T03:59:26.737Z,35.10
2024-02-14T03:59:58.272Z,35.27
2024-02-14T04:00:29.824Z,35.27
2024-02-14T04:01:01.419Z,35.15
2024-02-14T04:01:36.124Z,35.20
2024-02-14T04:02:07.613Z,35.17
2024-02-14T04:02:40.700Z,35.31
2024-02-14T04:03:12.704Z,35.08
2024-02-14T04:03:44.224Z,35.02
2024-02-14T04:04:15.772Z,35.19
2024-02-14T04:04:47.253Z,35.16
2024-02-14T04:05:21.711Z,35.14
2024-02-14T04:05:53.260Z,35.22
2024-02-14T04:06:24.870Z,35.22
2024-02-14T04:06:56.407Z,35.32
2024-02-14T04:07:27.947Z,35.31
2024-02-14T04:08:01.269Z,35.07
2024-02-14T04:08:32.825Z,35.25
2024-02-14T04:09:04.434Z,35.22
2024-02-14T04:09:35.981Z,35.21
2024-02-14T04:10:07.484Z,35.26
2024-02-14T04:10:38.951Z,35.24
2024-02-14T04:11:10.445Z,35.27
2024-02-14T04:11:41.933Z,35.19
2024-02-14T04:12:13.453Z,35.23
2024-02-14T04:12:44.983Z,35.18
2024-02-14T04:13:16.496Z,35.03
2024-02-14T04:13:47.972Z,35.19
2024-02-14T04:14:19.491Z,35.22
2024-02-14T04:14:50.895Z,35.19
2024-02-14T04:15:22.453Z,35.30
2024-02-14T04:15:53.915Z,35.18
2024-02-14T04:16:25.386Z,35.23
2024-02-14T04:16:56.843Z,35.10
2024-02-14T04:17:28.449Z,35.19
2024-02-14T04:18:34.582Z,35.30
2024-02-14T04:19:06.332Z,35.29
2024-02-14T04:19:38.037Z,35.23
2024-02-14T04:20:09.606Z,35.07
2024-02-14T04:20:41.187Z,35.06
2024-02-14T04:21:15.384Z,35.27
2024-02-14T04:21:47.088Z,35.22
2024-02-14T04:22:18.626Z,35.41
2024-02-14T04:22:50.155Z,35.37
2024-02-14T04:23:21.675Z,35.23
2024-02-14T04:23:53.267Z,35.22
2024-02-14T04:24:24.811Z,35.28
2024-02-14T04:24:56.245Z,35.17
2024-02-14T04:25:30.344Z,35.13
2024-02-14T04:26:01.779Z,35.30
2024-02-14T04:26:33.336Z,35.28
2024-02-14T04:27:04.889Z,35.28
2024-02-14T04:27:36.538Z,35.28
2024-02-14T04:28:08.006Z,35.26
2024-02-14T04:28:39.504Z,35.31
2024-02-14T04:29:11.084Z,35.30
2024-02-14T04:29:42.539Z,35.22
2024-02-14T04:30:14.114Z,35.24
2024-02-14T04:30:45.713Z,35.39
2024-02-14T04:31:17.161Z,35.55
2024-02-14T04:31:48.618Z,35.41
2024-02-14T04:32:20.123Z,35.43
2024-02-14T04:32:51.738Z,35.34
2024-02-14T04:33:23.682Z,35.29
2024-02-14T04:34:00.062Z,35.44
2024-02-14T04:34:32.332Z,35.46
2024-02-14T04:35:04.132Z,35.38
2024-02-14T04:35:35.682Z,35.50
2024-02-14T04:36:09.995Z,35.40
2024-02-14T04:36:41.578Z,35.41
2024-02-14T04:37:13.069Z,35.46
2024-02-14T04:37:44.598Z,35.55
2024-02-14T04:38:16.618Z,35.51
2024-02-14T04:38:48.142Z,35.37
2024-02-14T04:39:19.686Z,35.48
2024-02-14T04:39:51.202Z,35.47
2024-02-14T04:40:22.856Z,35.46
2024-02-14T04:40:54.354Z,35.53
2024-02-14T04:41:25.889Z,35.49
2024-02-14T04:42:02.516Z,35.54
2024-02-14T04:42:35.025Z,35.51
2024-02-14T04:43:06.602Z,35.53
2024-02-14T04:43:38.065Z,35.51
2024-02-14T04:44:09.507Z,35.51
2024-02-14T04:44:40.999Z,35.51
2024-02-14T04:45:12.594Z,35.57
2024-02-14T04:45:44.146Z,35.48
2024-02-14T04:46:15.793Z,35.49
2024-02-14T04:46:50.176Z,35.48
2024-02-14T04:47:21.670Z,35.27
2024-02-14T04:47:53.230Z,35.49
2024-02-14T04:48:24.881Z,35.75
2024-02-14T04:48:56.506Z,35.30
2024-02-14T04:49:28.165Z,35.30
2024-02-14T04:49:59.780Z,35.43
2024-02-14T04:50:31.402Z,35.49
2024-02-14T04:51:05.576Z,35.26
2024-02-14T04:51:37.463Z,35.60
2024-02-14T04:52:09.036Z,35.42
2024-02-14T04:52:40.653Z,35.53
2024-02-14T04:53:12.153Z,35.55
2024-02-14T04:53:43.787Z,35.55
2024-02-14T04:54:15.422Z,35.28
2024-02-14T04:54:46.972Z,35.32
2024-02-14T04:55:18.557Z,35.28
2024-02-14T04:55:50.037Z,35.39
2024-02-14T04:56:21.554Z,35.34
2024-02-14T04:56:56.344Z,35.48
2024-02-14T04:57:29.968Z,35.35
2024-02-14T04:58:03.667Z,35.44
2024-02-14T04:58:35.201Z,35.69
2024-02-14T04:59:06.689Z,35.53
2024-02-14T04:59:38.216Z,35.52
2024-02-14T05:00:09.672Z,35.54
2024-02-14T05:00:41.329Z,35.59
2024-02-14T05:01:12.883Z,35.54
2024-02-14T05:01:44.464Z,35.53
2024-02-14T05:02:15.979Z,35.43
2024-02-14T05:02:47.427Z,35.54
2024-02-14T05:03:19.166Z,35.63
2024-02-14T05:03:50.831Z,35.55
2024-02-14T05:04:22.495Z,35.39
2024-02-14T05:04:54.048Z,35.39
2024-02-14T05:05:25.551Z,35.65
2024-02-14T05:05:57.207Z,35.48
2024-02-14T05:06:31.776Z,35.48
2024-02-14T05:07:03.472Z,35.52
2024-02-14T05:07:35.010Z,35.62
2024-02-14T05:08:06.655Z,35.45
2024-02-14T05:08:38.163Z,35.58
2024-02-14T05:09:09.712Z,35.54
2024-02-14T05:09:41.131Z,35.49
2024-02-14T05:10:12.651Z,35.57
2024-02-14T05:10:44.133Z,35.48
2024-02-14T05:11:15.614Z,35.62
2024-02-14T05:11:47.085Z,35.67
2024-02-14T05:12:18.554Z,35.57
2024-02-14T05:12:50.117Z,35.46
2024-02-14T05:13:21.578Z,35.64
2024-02-14T05:13:53.040Z,35.55
2024-02-14T05:14:24.580Z,35.83
2024-02-14T05:14:56.138Z,35.58
2024-02-14T05:15:27.653Z,35.48
2024-02-14T05:15:59.184Z,35.63
2024-02-14T05:16:30.695Z,35.52
2024-02-14T05:17:02.201Z,35.67
2024-02-14T05:17:33.679Z,35.58
2024-02-14T05:18:05.333Z,35.65
2024-02-14T05:18:37.079Z,35.69
2024-02-14T05:19:08.809Z,35.76
2024-02-14T05:19:40.500Z,35.79
2024-02-14T05:20:12.109Z,35.75
2024-02-14T05:20:43.640Z,35.70
2024-02-14T05:21:15.177Z,35.85
2024-02-14T05:21:46.653Z,35.88
2024-02-14T05:22:18.127Z,35.76
2024-02-14T05:22:49.617Z,35.84
2024-02-14T05:23:21.057Z,35.84
2024-02-14T05:23:54.619Z,35.72
2024-02-14T05:24:26.195Z,35.70
2024-02-14T05:24:57.689Z,35.75
2024-02-14T05:25:29.182Z,35.70
2024-02-14T05:26:00.693Z,35.62
2024-02-14T05:26:32.281Z,35.76
2024-02-14T05:27:03.837Z,35.63
2024-02-14T05:27:35.384Z,35.66
2024-02-14T05:28:06.892Z,35.58
2024-02-14T05:28:38.439Z,35.58
2024-02-14T05:29:09.972Z,35.69
2024-02-14T05:29:41.558Z,35.78
2024-02-14T05:30:13.056Z,35.86
2024-02-14T05:30:50.612Z,35.72
2024-02-14T05:31:22.129Z,35.71
2024-02-14T05:31:53.779Z,35.75
2024-02-14T05:32:25.425Z,35.71
2024-02-14T05:32:57.095Z,35.88
2024-02-14T05:33:28.859Z,35.59
2024-02-14T05:34:03.504Z,35.83
2024-02-14T05:34:35.278Z,35.77
2024-02-14T05:35:07.045Z,35.92
2024-02-14T05:35:38.767Z,35.72
2024-02-14T05:36:10.335Z,35.80
2024-02-14T05:36:41.886Z,35.79
2024-02-14T05:37:13.368Z,35.71
2024-02-14T05:37:44.843Z,35.75
2024-02-14T05:38:16.391Z,35.78
2024-02-14T05:38:47.930Z,35.59
2024-02-14T05:39:19.388Z,35.87
2024-02-14T05:39:50.921Z,35.76
2024-02-14T05:40:22.366Z,35.75
2024-02-14T05:40:53.817Z,35.86
2024-02-14T05:41:25.384Z,35.91
2024-02-14T05:41:56.899Z,35.75
2024-02-14T05:42:28.565Z,35.86
2024-02-14T05:43:00.081Z,35.88
2024-02-14T05:43:34.411Z,35.95
2024-02-14T05:44:07.923Z,35.73
2024-02-14T05:44:39.440Z,35.67
2024-02-14T05:45:11.158Z,35.81
2024-02-14T05:45:42.766Z,35.66
2024-02-14T05:46:14.271Z,35.80
2024-02-14T05:46:45.817Z,35.69
2024-02-14T05:47:17.279Z,35.79
2024-02-14T05:47:48.963Z,35.85
2024-02-14T05:48:20.718Z,35.93
2024-02-14T05:48:52.369Z,35.83
2024-02-14T05:49:24.140Z,35.79
2024-02-14T05:49:55.952Z,35.77
2024-02-14T05:50:27.580Z,35.99
2024-02-14T05:50:59.112Z,35.83
2024-02-14T05:51:30.662Z,35.76
2024-02-14T05:52:02.124Z,35.84
2024-02-14T05:52:33.645Z,35.99
2024-02-14T05:53:07.875Z,35.69
2024-02-14T05:53:39.472Z,35.76
2024-02-14T05:54:11.005Z,35.87
2024-02-14T05:54:42.468Z,35.91
2024-02-14T05:55:14.066Z,35.90
2024-02-14T05:55:47.724Z,35.93
2024-02-14T05:56:19.171Z,35.99
2024-02-14T05:56:50.691Z,35.84
2024-02-14T05:57:22.374Z,36.01
2024-02-14T05:57:53.921Z,36.02
2024-02-14T05:58:28.022Z,35.98
2024-02-14T05:58:59.474Z,36.10
2024-02-14T05:59:31.034Z,35.86
2024-02-14T06:00:05.679Z,35.95
2024-02-14T06:00:37.773Z,35.98
2024-02-14T06:01:09.637Z,36.08
2024-02-14T06:01:44.304Z,35.83
2024-02-14T06:02:15.825Z,35.99
2024-02-14T06:02:47.340Z,35.99
2024-02-14T06:03:18.782Z,36.00
2024-02-14T06:03:51.947Z,35.97
2024-02-14T06:04:23.471Z,35.93
2024-02-14T06:04:54.917Z,36.09
2024-02-14T06:05:26.407Z,36.08
2024-02-14T06:05:58.040Z,36.06
2024-02-14T06:06:29.637Z,36.03
2024-02-14T06:07:04.192Z,35.96
2024-02-14T06:07:35.722Z,36.03
2024-02-14T06:08:07.325Z,35.98
2024-02-14T06:08:38.818Z,35.86
2024-02-14T06:09:10.418Z,36.04
2024-02-14T06:09:42.035Z,35.91
2024-02-14T06:10:13.545Z,35.99
2024-02-14T06:10:45.053Z,36.12
2024-02-14T06:11:16.562Z,35.90
2024-02-14T06:11:48.116Z,36.06
2024-02-14T06:12:19.604Z,36.15
2024-02-14T06:12:51.079Z,36.17
2024-02-14T06:13:22.530Z,36.15
2024-02-14T06:13:54.029Z,36.21
2024-02-14T06:14:28.275Z,36.19
2024-02-14T06:14:59.847Z,35.88
2024-02-14T06:15:31.388Z,36.05
2024-02-14T06:16:03.641Z,36.16
2024-02-14T06:16:35.128Z,35.92
2024-02-14T06:17:06.645Z,36.05
2024-02-14T06:17:38.405Z,36.05
2024-02-14T06:18:09.995Z,36.14
2024-02-14T06:18:41.889Z,36.05
2024-02-14T06:19:13.521Z,36.11
2024-02-14T06:19:45.092Z,36.17
2024-02-14T06:20:17.734Z,35.96
2024-02-14T06:20:49.319Z,36.18
2024-02-14T06:21:20.891Z,36.37
2024-02-14T06:21:52.312Z,36.28
2024-02-14T06:22:23.763Z,36.32
2024-02-14T06:23:02.003Z,36.36
2024-02-14T06:23:37.088Z,36.16
2024-02-14T06:24:08.734Z,36.26
2024-02-14T06:24:40.204Z,36.41
2024-02-14T06:25:11.714Z,36.28
2024-02-14T06:25:43.363Z,36.28
2024-02-14T06:26:14.880Z,36.33
2024-02-14T06:26:46.366Z,36.35
2024-02-14T06:27:17.873Z,36.37
2024-02-14T06:27:49.403Z,36.45
2024-02-14T06:28:20.903Z,36.43
2024-02-14T06:28:52.380Z,36.36
2024-02-14T06:29:23.836Z,36.28
2024-02-14T06:29:55.383Z,36.35
2024-02-14T06:30:29.645Z,36.36
2024-02-14T06:31:03.370Z,36.45
2024-02-14T06:31:34.828Z,36.21
2024-02-14T06:32:06.421Z,36.42
2024-02-14T06:32:38.187Z,36.43
2024-02-14T06:33:10.016Z,36.24
2024-02-14T06:33:41.898Z,36.54
2024-02-14T06:34:13.767Z,36.27
2024-02-14T06:34:45.546Z,36.26
2024-02-14T06:35:17.294Z,36.42
2024-02-14T06:35:49.112Z,36.21
2024-02-14T06:36:21.949Z,36.45
2024-02-14T06:36:55.690Z,36.38
2024-02-14T06:37:27.218Z,36.44
2024-02-14T06:38:03.987Z,36.41
2024-02-14T06:38:36.841Z,36.51
2024-02-14T06:39:08.403Z,36.45
2024-02-14T06:39:40.035Z,36.50
2024-02-14T06:40:11.518Z,36.55
2024-02-14T06:40:43.102Z,36.36
2024-02-14T06:41:14.937Z,36.38
2024-02-14T06:41:46.442Z,36.39
2024-02-14T06:42:17.971Z,36.52
2024-02-14T06:42:49.474Z,36.54
2024-02-14T06:43:21.023Z,36.37
2024-02-14T06:43:52.631Z,36.61
2024-02-14T06:44:24.129Z,36.42
2024-02-14T06:44:55.591Z,36.71
2024-02-14T06:45:27.126Z,36.42
2024-02-14T06:46:02.682Z,36.50
2024-02-14T06:46:34.245Z,36.46
2024-02-14T06:47:05.670Z,36.46
2024-02-14T06:47:37.212Z,36.45
2024-02-14T06:48:08.759Z,36.45
2024-02-14T06:48:40.540Z,36.43
2024-02-14T06:49:12.347Z,36.42
2024-02-14T06:49:44.068Z,36.44
2024-02-14T06:50:15.623Z,36.42
2024-02-14T06:50:47.142Z,36.62
2024-02-14T06:51:18.663Z,36.52